CheckWX is a tool to help pilots better visualize weather data.  It is not intended as a substitute for an official pre-flight weather briefing.

04:16:31 UTC

KCXW METAR
Cantrell Field Airport
Conway, Arkansas, USA
Current

37 mins ago

KCXW 270340Z AUTO 00000KT 10SM 26/23 A3014 RMK A01
Observed
Jun-27 @ 03:40 UTC
Visibility
10 SM
Temperature
26°C / 79°F
Dewpoint
23°C / 73°F
Humidity
84%
Altimeter
30.14" Hg
Pressure
1020.62 hPa
Previous

57 mins ago

KCXW 270320Z AUTO 00000KT 10SM 26/23 A3014 RMK A01
Observed
Jun-27 @ 03:20 UTC
Visibility
10 SM
Temperature
26°C / 79°F
Dewpoint
23°C / 73°F
Humidity
84%
Altimeter
30.14" Hg
Pressure
1020.62 hPa
Previous

1 hour ago

KCXW 270300Z AUTO 18003KT 10SM 26/23 A3012 RMK A01
Observed
Jun-27 @ 03:00 UTC
Wind
  • 180° at 3 KTS
Visibility
10 SM
Temperature
26°C / 79°F
Dewpoint
23°C / 73°F
Humidity
84%
Altimeter
30.12" Hg
Pressure
1020.02 hPa